Time,TemperatureF,DewpointF,PressureIn,WindDirection,WindDirectionDegrees,WindSpeedMPH,WindSpeedGustMPH,Humidity,HourlyPrecipIn,Conditions,Clouds,dailyrainin,SoftwareType,DateUTC
2013-01-20 18:43:00,47.5,25.4,30.26,NNE,22,13.4,13.4,41,-99.99,,,0.00,wxRedirect v1.0,2013-01-21 00:43:00,
2013-01-20 18:48:00,47.5,25.4,30.27,NE,45,11.0,13.4,41,-99.99,,,0.00,wxRedirect v1.0,2013-01-21 00:48:00,
2013-01-20 18:50:00,47.5,25.4,30.27,NNE,22,18.3,18.3,41,-99.99,,,0.00,wxRedirect v1.0,2013-01-21 00:50:00,
2013-01-20 18:57:00,47.5,25.4,30.28,NNE,22,15.9,18.3,41,-99.99,,,0.00,wxRedirect v1.0,2013-01-21 00:57:00,
2013-01-20 19:03:00,47.5,25.4,30.28,NNE,22,10.5,18.3,41,-99.99,,,0.00,wxRedirect v1.0,2013-01-21 01:03:00,
2013-01-20 19:12:00,34.7,13.9,30.28,NE,45,9.8,18.3,42,-99.99,,,0.00,wxRedirect v1.0,2013-01-21 01:12:00,
2013-01-20 21:29:00,29.7,10.3,30.34,NE,45,10.7,10.7,44,-99.99,,,0.00,wxRedirect v1.0,2013-01-21 03:29:00,
2013-01-20 21:35:00,29.7,10.3,30.34,ENE,67,7.2,10.7,44,-99.99,,,0.00,wxRedirect v1.0,2013-01-21 03:35:00,
2013-01-20 22:23:00,28.0,8.8,30.35,NE,45,2.7,2.7,44,-99.99,,,0.00,wxRedirect v1.0,2013-01-21 04:23:00,
2013-01-20 22:29:00,28.0,9.3,30.36,ENE,67,3.8,8.1,45,-99.99,,,0.00,wxRedirect v1.0,2013-01-21 04:29:00,
2013-01-20 22:34:00,28.0,8.8,30.36,NE,45,7.2,8.1,44,-99.99,,,0.00,wxRedirect v1.0,2013-01-21 04:34:00,
2013-01-20 22:40:00,27.9,8.7,30.36,NNE,22,11.6,11.6,44,-99.99,,,0.00,wxRedirect v1.0,2013-01-21 04:40:00,
2013-01-20 22:45:00,27.7,8.5,30.36,NE,45,4.7,11.6,44,-99.99,,,0.00,wxRedirect v1.0,2013-01-21 04:45:00,
2013-01-20 22:50:00,27.7,8.5,30.36,NE,45,10.1,11.6,44,-99.99,,,0.00,wxRedirect v1.0,2013-01-21 04:50:00,
2013-01-20 22:56:00,27.5,8.3,30.36,NE,45,2.9,11.4,44,-99.99,,,0.00,wxRedirect v1.0,2013-01-21 04:56:00,
2013-01-20 23:02:00,27.5,8.3,30.36,NE,45,0.0,11.4,44,-99.99,,,0.00,wxRedirect v1.0,2013-01-21 05:02:00,
2013-01-20 23:03:00,27.5,8.3,30.36,NNE,22,6.7,11.4,44,-99.99,,,0.00,wxRedirect v1.0,2013-01-21 05:03:00,
2013-01-20 23:06:00,27.5,8.3,30.36,NE,45,2.7,11.4,44,-99.99,,,0.00,wxRedirect v1.0,2013-01-21 05:06:00,
2013-01-20 23:11:00,27.3,8.2,30.36,NE,45,9.4,9.4,44,-99.99,,,0.00,wxRedirect v1.0,2013-01-21 05:11:00,
2013-01-20 23:17:00,27.1,8.0,30.36,NNE,22,10.5,10.5,44,-99.99,,,0.00,wxRedirect v1.0,2013-01-21 05:17:00,
2013-01-20 23:22:00,27.1,8.0,30.36,NNE,22,1.1,11.9,44,-99.99,,,0.00,wxRedirect v1.0,2013-01-21 05:22:00,
2013-01-20 23:27:00,27.0,7.8,30.36,ENE,67,0.0,11.9,44,-99.99,,,0.00,wxRedirect v1.0,2013-01-21 05:27:00,